WML52 KHEF-KF45
Flight info
| Callsign | WML52 |
|---|---|
| Flight time | N/A |
| Altitude | 36000 |
| Route | GABBE3 GLANC LYH JEVED Q97 KENLL OMN TRV |
| Aircraft | C525/L-SDFGRWY/SB1 |
Departure
| Time | N/A |
|---|---|
| Airport | Manassas Regional Airport/Harry P. Davis Field (KHEF) |
Arrival
| Time | 2026-04-27 02:52 |
|---|---|
| Airport | North Palm Beach County General Aviation Airport (KF45) |
| Time | Latitude | Longitude | Altitude | Speed | Heading |
|---|---|---|---|---|---|
| 2026-04-27 00:56 | 38.16530 | -78.11389 | 24158 ft | 301 kts | 234° |
| 2026-04-27 00:56 | 38.15164 | -78.13470 | 24575 ft | 303 kts | 234° |
| 2026-04-27 00:56 | 38.13811 | -78.15530 | 24995 ft | 304 kts | 234° |
| 2026-04-27 00:57 | 38.12438 | -78.17620 | 25405 ft | 305 kts | 234° |
| 2026-04-27 00:57 | 38.11052 | -78.19729 | 25804 ft | 306 kts | 234° |
| 2026-04-27 00:57 | 38.09674 | -78.21823 | 26186 ft | 308 kts | 234° |
| 2026-04-27 00:57 | 38.08311 | -78.23894 | 26581 ft | 309 kts | 234° |
| 2026-04-27 00:58 | 38.06930 | -78.25994 | 26942 ft | 310 kts | 234° |
| 2026-04-27 00:58 | 38.05545 | -78.28146 | 27321 ft | 311 kts | 235° |
| 2026-04-27 00:58 | 38.04172 | -78.30299 | 27673 ft | 313 kts | 235° |
| 2026-04-27 00:58 | 38.02782 | -78.32479 | 27990 ft | 315 kts | 235° |
| 2026-04-27 00:59 | 38.01397 | -78.34641 | 28360 ft | 316 kts | 235° |
| 2026-04-27 00:59 | 38.00006 | -78.36810 | 28667 ft | 318 kts | 236° |
| 2026-04-27 00:59 | 37.98591 | -78.39013 | 29013 ft | 319 kts | 236° |
| 2026-04-27 00:59 | 37.97183 | -78.41202 | 29340 ft | 320 kts | 235° |
| 2026-04-27 01:00 | 37.95773 | -78.43394 | 29662 ft | 321 kts | 235° |
| 2026-04-27 01:00 | 37.94360 | -78.45588 | 29931 ft | 323 kts | 236° |
| 2026-04-27 01:00 | 37.92936 | -78.47799 | 30270 ft | 323 kts | 236° |
| 2026-04-27 01:00 | 37.91506 | -78.50015 | 30554 ft | 325 kts | 236° |
| 2026-04-27 01:01 | 37.90075 | -78.52235 | 30829 ft | 326 kts | 236° |
| 2026-04-27 01:01 | 37.88604 | -78.54514 | 31062 ft | 329 kts | 236° |
| 2026-04-27 01:01 | 37.87142 | -78.56776 | 31344 ft | 330 kts | 236° |
| 2026-04-27 01:01 | 37.85675 | -78.59045 | 31586 ft | 331 kts | 236° |
| 2026-04-27 01:02 | 37.84216 | -78.61300 | 31837 ft | 332 kts | 236° |
| 2026-04-27 01:02 | 37.82741 | -78.63578 | 32054 ft | 334 kts | 236° |
| 2026-04-27 01:02 | 37.81261 | -78.65862 | 32314 ft | 335 kts | 235° |
| 2026-04-27 01:02 | 37.79781 | -78.68147 | 32495 ft | 338 kts | 235° |
| 2026-04-27 01:03 | 37.78289 | -78.70445 | 32765 ft | 338 kts | 235° |
| 2026-04-27 01:03 | 37.76783 | -78.72765 | 32966 ft | 340 kts | 235° |
| 2026-04-27 01:03 | 37.75268 | -78.75098 | 33151 ft | 342 kts | 235° |
| 2026-04-27 01:03 | 37.73758 | -78.77419 | 33403 ft | 342 kts | 235° |
| 2026-04-27 01:04 | 37.72175 | -78.79726 | 33584 ft | 347 kts | 231° |
| 2026-04-27 01:04 | 37.70404 | -78.81829 | 33795 ft | 351 kts | 224° |
| 2026-04-27 01:04 | 37.68426 | -78.83680 | 34018 ft | 353 kts | 219° |
| 2026-04-27 01:04 | 37.66365 | -78.85461 | 34181 ft | 356 kts | 218° |
| 2026-04-27 01:05 | 37.64332 | -78.87250 | 34419 ft | 355 kts | 219° |
| 2026-04-27 01:05 | 37.62304 | -78.89088 | 34566 ft | 358 kts | 220° |
| 2026-04-27 01:05 | 37.60296 | -78.90945 | 34688 ft | 359 kts | 220° |
| 2026-04-27 01:05 | 37.58273 | -78.92828 | 34852 ft | 360 kts | 220° |
| 2026-04-27 01:06 | 37.56245 | -78.94721 | 35023 ft | 359 kts | 220° |
| 2026-04-27 01:06 | 37.54237 | -78.96595 | 35148 ft | 360 kts | 221° |
| 2026-04-27 01:06 | 37.52210 | -78.98483 | 35332 ft | 360 kts | 221° |
| 2026-04-27 01:06 | 37.50167 | -79.00386 | 35466 ft | 361 kts | 221° |
| 2026-04-27 01:07 | 37.48167 | -79.02245 | 35607 ft | 361 kts | 221° |
| 2026-04-27 01:07 | 37.46120 | -79.04149 | 35743 ft | 362 kts | 221° |
| 2026-04-27 01:07 | 37.44099 | -79.06025 | 35887 ft | 362 kts | 221° |
| 2026-04-27 01:07 | 37.42055 | -79.07932 | 35994 ft | 363 kts | 221° |
| 2026-04-27 01:08 | 37.40011 | -79.09859 | 36116 ft | 363 kts | 221° |
| 2026-04-27 01:08 | 37.35914 | -79.13751 | 36182 ft | 371 kts | 222° |
| 2026-04-27 01:09 | 37.31736 | -79.17715 | 36182 ft | 379 kts | 221° |
| 2026-04-27 01:09 | 37.27465 | -79.21744 | 36179 ft | 387 kts | 221° |
| 2026-04-27 01:10 | 37.22773 | -79.25311 | 36180 ft | 400 kts | 207° |
| 2026-04-27 01:10 | 37.17304 | -79.27184 | 36169 ft | 411 kts | 193° |
| 2026-04-27 01:11 | 37.11612 | -79.28366 | 36174 ft | 416 kts | 193° |
| 2026-04-27 01:11 | 37.05872 | -79.29914 | 36169 ft | 419 kts | 197° |
| 2026-04-27 01:12 | 37.00200 | -79.31783 | 36159 ft | 422 kts | 199° |
| 2026-04-27 01:12 | 36.94438 | -79.33742 | 36159 ft | 425 kts | 199° |
| 2026-04-27 01:13 | 36.88650 | -79.35653 | 36145 ft | 428 kts | 198° |
| 2026-04-27 01:13 | 36.82770 | -79.37553 | 36148 ft | 429 kts | 198° |
| 2026-04-27 01:14 | 36.76934 | -79.39432 | 36149 ft | 430 kts | 198° |
| 2026-04-27 01:14 | 36.71074 | -79.41325 | 36151 ft | 431 kts | 198° |
| 2026-04-27 01:15 | 36.65218 | -79.43216 | 36159 ft | 432 kts | 198° |
| 2026-04-27 01:15 | 36.59355 | -79.45106 | 36155 ft | 433 kts | 198° |
| 2026-04-27 01:16 | 36.53484 | -79.46995 | 36146 ft | 433 kts | 199° |
| 2026-04-27 01:16 | 36.47599 | -79.48886 | 36148 ft | 434 kts | 198° |
| 2026-04-27 01:17 | 36.41759 | -79.50759 | 36145 ft | 434 kts | 198° |
| 2026-04-27 01:17 | 36.35860 | -79.52648 | 36142 ft | 434 kts | 199° |
| 2026-04-27 01:18 | 36.30005 | -79.54520 | 36144 ft | 434 kts | 199° |
| 2026-04-27 01:18 | 36.24124 | -79.56398 | 36140 ft | 434 kts | 199° |
| 2026-04-27 01:19 | 36.18232 | -79.58276 | 36141 ft | 434 kts | 199° |
| 2026-04-27 01:19 | 36.12334 | -79.60154 | 36134 ft | 434 kts | 199° |
| 2026-04-27 01:20 | 36.06456 | -79.62022 | 36140 ft | 434 kts | 199° |
| 2026-04-27 01:20 | 36.00582 | -79.63886 | 36141 ft | 434 kts | 199° |
| 2026-04-27 01:21 | 35.94630 | -79.65771 | 36131 ft | 435 kts | 198° |
| 2026-04-27 01:21 | 35.88736 | -79.67635 | 36131 ft | 435 kts | 198° |
| 2026-04-27 01:22 | 35.82806 | -79.69508 | 36121 ft | 434 kts | 199° |
| 2026-04-27 01:22 | 35.76925 | -79.71362 | 36133 ft | 434 kts | 199° |
| 2026-04-27 01:23 | 35.71079 | -79.73202 | 36110 ft | 434 kts | 199° |
| 2026-04-27 01:23 | 35.65196 | -79.75052 | 36119 ft | 433 kts | 199° |
| 2026-04-27 01:24 | 35.59348 | -79.76887 | 36138 ft | 433 kts | 199° |
| 2026-04-27 01:24 | 35.53440 | -79.78740 | 36112 ft | 434 kts | 199° |
| 2026-04-27 01:25 | 35.47583 | -79.80572 | 36110 ft | 434 kts | 199° |
| 2026-04-27 01:25 | 35.41675 | -79.82419 | 36105 ft | 434 kts | 199° |
| 2026-04-27 01:26 | 35.35786 | -79.84255 | 36094 ft | 434 kts | 199° |
| 2026-04-27 01:26 | 35.29906 | -79.86087 | 36106 ft | 433 kts | 199° |
| 2026-04-27 01:27 | 35.24010 | -79.87921 | 36094 ft | 433 kts | 199° |
| 2026-04-27 01:27 | 35.18141 | -79.89744 | 36100 ft | 433 kts | 199° |
| 2026-04-27 01:28 | 35.12264 | -79.91567 | 36098 ft | 433 kts | 199° |
| 2026-04-27 01:28 | 35.06347 | -79.93399 | 36092 ft | 434 kts | 199° |
| 2026-04-27 01:29 | 35.00477 | -79.95214 | 36090 ft | 434 kts | 199° |
| 2026-04-27 01:29 | 34.94591 | -79.97031 | 36099 ft | 433 kts | 199° |
| 2026-04-27 01:30 | 34.88690 | -79.98850 | 36095 ft | 433 kts | 199° |
| 2026-04-27 01:30 | 34.82781 | -80.00669 | 36091 ft | 433 kts | 200° |
| 2026-04-27 01:31 | 34.76940 | -80.02464 | 36103 ft | 432 kts | 200° |
| 2026-04-27 01:31 | 34.71084 | -80.04261 | 36367 ft | 432 kts | 200° |
| 2026-04-27 01:31 | 34.68130 | -80.05169 | 36160 ft | 434 kts | 200° |
| 2026-04-27 01:32 | 34.65179 | -80.06073 | 36114 ft | 433 kts | 200° |
| 2026-04-27 01:32 | 34.59335 | -80.07859 | 36108 ft | 433 kts | 200° |
| 2026-04-27 01:33 | 34.53458 | -80.09655 | 36093 ft | 433 kts | 200° |
| 2026-04-27 01:33 | 34.47602 | -80.11443 | 36091 ft | 433 kts | 200° |
| 2026-04-27 01:34 | 34.41695 | -80.13242 | 36087 ft | 433 kts | 200° |
| 2026-04-27 01:34 | 34.35840 | -80.15023 | 36090 ft | 433 kts | 200° |
| 2026-04-27 01:35 | 34.29965 | -80.16808 | 36085 ft | 433 kts | 200° |
| 2026-04-27 01:35 | 34.24078 | -80.18594 | 36082 ft | 433 kts | 200° |
| 2026-04-27 01:36 | 34.18222 | -80.20368 | 36075 ft | 433 kts | 200° |
| 2026-04-27 01:36 | 34.12366 | -80.22140 | 36069 ft | 432 kts | 200° |
| 2026-04-27 01:37 | 34.06536 | -80.23899 | 36077 ft | 430 kts | 200° |
| 2026-04-27 01:37 | 34.00692 | -80.25662 | 36072 ft | 430 kts | 200° |
| 2026-04-27 01:38 | 33.94856 | -80.27421 | 36074 ft | 431 kts | 200° |
| 2026-04-27 01:38 | 33.88989 | -80.29186 | 36067 ft | 431 kts | 201° |
| 2026-04-27 01:39 | 33.83144 | -80.30942 | 36072 ft | 431 kts | 200° |
| 2026-04-27 01:39 | 33.77331 | -80.32684 | 36064 ft | 431 kts | 201° |
| 2026-04-27 01:40 | 33.71498 | -80.34431 | 36061 ft | 429 kts | 200° |
| 2026-04-27 01:40 | 33.65673 | -80.36173 | 36059 ft | 429 kts | 201° |
| 2026-04-27 01:41 | 33.59858 | -80.37910 | 36064 ft | 429 kts | 200° |
| 2026-04-27 01:41 | 33.54067 | -80.39638 | 36058 ft | 429 kts | 201° |
| 2026-04-27 01:42 | 33.48263 | -80.41366 | 36054 ft | 428 kts | 200° |
| 2026-04-27 01:42 | 33.42459 | -80.43092 | 36049 ft | 427 kts | 201° |
| 2026-04-27 01:43 | 33.36696 | -80.44803 | 36041 ft | 427 kts | 201° |
| 2026-04-27 01:43 | 33.30888 | -80.46526 | 36038 ft | 426 kts | 201° |
| 2026-04-27 01:44 | 33.25112 | -80.48238 | 36045 ft | 427 kts | 201° |
| 2026-04-27 01:44 | 33.19299 | -80.49957 | 36035 ft | 426 kts | 201° |
| 2026-04-27 01:45 | 33.13555 | -80.51653 | 36037 ft | 426 kts | 201° |
| 2026-04-27 01:45 | 33.07771 | -80.53359 | 36040 ft | 426 kts | 201° |
| 2026-04-27 01:46 | 33.01983 | -80.55065 | 36040 ft | 425 kts | 201° |
| 2026-04-27 01:46 | 32.96195 | -80.56767 | 36039 ft | 425 kts | 201° |
| 2026-04-27 01:47 | 32.90481 | -80.58446 | 36044 ft | 424 kts | 201° |
| 2026-04-27 01:47 | 32.84738 | -80.60130 | 36040 ft | 424 kts | 201° |
| 2026-04-27 01:48 | 32.78956 | -80.61826 | 36041 ft | 424 kts | 201° |
| 2026-04-27 01:48 | 32.73222 | -80.63503 | 36040 ft | 424 kts | 201° |
| 2026-04-27 01:49 | 32.67496 | -80.65177 | 36037 ft | 424 kts | 200° |
| 2026-04-27 01:49 | 32.61715 | -80.66865 | 36033 ft | 424 kts | 200° |
| 2026-04-27 01:50 | 32.56000 | -80.68529 | 36031 ft | 424 kts | 200° |
| 2026-04-27 01:50 | 32.50231 | -80.70209 | 36032 ft | 424 kts | 200° |
| 2026-04-27 01:51 | 32.44491 | -80.71878 | 36029 ft | 425 kts | 200° |
| 2026-04-27 01:51 | 32.38730 | -80.73550 | 36030 ft | 424 kts | 200° |
| 2026-04-27 01:52 | 32.33011 | -80.75207 | 36023 ft | 423 kts | 200° |
| 2026-04-27 01:52 | 32.27240 | -80.76878 | 36023 ft | 423 kts | 200° |
| 2026-04-27 01:53 | 32.21480 | -80.78545 | 36023 ft | 423 kts | 200° |
| 2026-04-27 01:53 | 32.15740 | -80.80202 | 36017 ft | 423 kts | 200° |
| 2026-04-27 01:54 | 32.10014 | -80.81853 | 36018 ft | 423 kts | 200° |
| 2026-04-27 01:54 | 32.04274 | -80.83506 | 36020 ft | 422 kts | 200° |
| 2026-04-27 01:55 | 31.98556 | -80.85152 | 36013 ft | 423 kts | 200° |
| 2026-04-27 01:55 | 31.92839 | -80.86794 | 36011 ft | 422 kts | 200° |
| 2026-04-27 01:56 | 31.84262 | -80.89253 | 36007 ft | 421 kts | 200° |
| 2026-04-27 01:56 | 31.78460 | -80.90915 | 36002 ft | 422 kts | 200° |
| 2026-04-27 01:57 | 31.72803 | -80.92533 | 36004 ft | 422 kts | 200° |
| 2026-04-27 01:57 | 31.67075 | -80.94170 | 36003 ft | 422 kts | 200° |
| 2026-04-27 01:58 | 31.61351 | -80.95802 | 36002 ft | 421 kts | 200° |
| 2026-04-27 01:58 | 31.55632 | -80.97431 | 36004 ft | 421 kts | 200° |
| 2026-04-27 01:59 | 31.49950 | -80.99049 | 36000 ft | 421 kts | 200° |
| 2026-04-27 01:59 | 31.44271 | -81.00663 | 36007 ft | 420 kts | 200° |
| 2026-04-27 02:00 | 31.38563 | -81.02283 | 35995 ft | 421 kts | 201° |
| 2026-04-27 02:00 | 31.32869 | -81.03896 | 35995 ft | 420 kts | 200° |
| 2026-04-27 02:01 | 31.27174 | -81.05502 | 35994 ft | 421 kts | 200° |
| 2026-04-27 02:01 | 31.21300 | -81.06641 | 35988 ft | 427 kts | 191° |
| 2026-04-27 02:02 | 31.15285 | -81.06721 | 35990 ft | 433 kts | 184° |
| 2026-04-27 02:02 | 31.09193 | -81.06504 | 35991 ft | 432 kts | 185° |
| 2026-04-27 02:03 | 31.03220 | -81.06488 | 35537 ft | 427 kts | 187° |
| 2026-04-27 02:03 | 31.00247 | -81.06548 | 35055 ft | 424 kts | 187° |
| 2026-04-27 02:03 | 30.97287 | -81.06628 | 34551 ft | 422 kts | 188° |
| 2026-04-27 02:04 | 30.94361 | -81.06712 | 34053 ft | 420 kts | 188° |
| 2026-04-27 02:04 | 30.91417 | -81.06791 | 33556 ft | 418 kts | 188° |
| 2026-04-27 02:04 | 30.88459 | -81.06863 | 33057 ft | 417 kts | 187° |
| 2026-04-27 02:04 | 30.85582 | -81.06926 | 32574 ft | 415 kts | 187° |
| 2026-04-27 02:05 | 30.82650 | -81.06986 | 32076 ft | 413 kts | 187° |
| 2026-04-27 02:05 | 30.79785 | -81.07042 | 31596 ft | 412 kts | 187° |
| 2026-04-27 02:05 | 30.76869 | -81.07099 | 31106 ft | 410 kts | 187° |
| 2026-04-27 02:05 | 30.74028 | -81.07156 | 30626 ft | 408 kts | 187° |
| 2026-04-27 02:06 | 30.71529 | -81.07206 | 30202 ft | 407 kts | 187° |
| 2026-04-27 02:06 | 30.68686 | -81.07265 | 29720 ft | 405 kts | 187° |
| 2026-04-27 02:06 | 30.65827 | -81.07323 | 29245 ft | 404 kts | 186° |
| 2026-04-27 02:06 | 30.63010 | -81.07381 | 28775 ft | 402 kts | 186° |
| 2026-04-27 02:07 | 30.60146 | -81.07466 | 28297 ft | 400 kts | 187° |
| 2026-04-27 02:07 | 30.57326 | -81.07619 | 27823 ft | 397 kts | 188° |
| 2026-04-27 02:07 | 30.54551 | -81.07806 | 27353 ft | 396 kts | 188° |
| 2026-04-27 02:07 | 30.51793 | -81.08003 | 26888 ft | 394 kts | 188° |
| 2026-04-27 02:08 | 30.49044 | -81.08197 | 26420 ft | 393 kts | 188° |
| 2026-04-27 02:08 | 30.46308 | -81.08379 | 25955 ft | 392 kts | 188° |
| 2026-04-27 02:08 | 30.43592 | -81.08550 | 25490 ft | 390 kts | 187° |
| 2026-04-27 02:08 | 30.40849 | -81.08716 | 25022 ft | 389 kts | 187° |
| 2026-04-27 02:09 | 30.38168 | -81.08874 | 24565 ft | 388 kts | 187° |
| 2026-04-27 02:09 | 30.35476 | -81.09032 | 24101 ft | 387 kts | 187° |
| 2026-04-27 02:09 | 30.32790 | -81.09190 | 23639 ft | 385 kts | 187° |
| 2026-04-27 02:09 | 30.30120 | -81.09348 | 23182 ft | 384 kts | 187° |
| 2026-04-27 02:10 | 30.27446 | -81.09508 | 22724 ft | 382 kts | 187° |
| 2026-04-27 02:10 | 30.24796 | -81.09666 | 22273 ft | 381 kts | 187° |
| 2026-04-27 02:10 | 30.22107 | -81.09828 | 22283 ft | 381 kts | 187° |
| 2026-04-27 02:10 | 30.19441 | -81.09991 | 22281 ft | 386 kts | 187° |
| 2026-04-27 02:11 | 30.16741 | -81.10154 | 22276 ft | 390 kts | 186° |
| 2026-04-27 02:11 | 30.14022 | -81.10318 | 22271 ft | 394 kts | 186° |
| 2026-04-27 02:11 | 30.11236 | -81.10485 | 22269 ft | 397 kts | 186° |
| 2026-04-27 02:11 | 30.08481 | -81.10650 | 22265 ft | 399 kts | 186° |
| 2026-04-27 02:12 | 30.05675 | -81.10816 | 22268 ft | 401 kts | 186° |
| 2026-04-27 02:12 | 30.02900 | -81.10981 | 22267 ft | 403 kts | 186° |
| 2026-04-27 02:12 | 30.00028 | -81.11151 | 22265 ft | 405 kts | 186° |
| 2026-04-27 02:12 | 29.97192 | -81.11320 | 22268 ft | 406 kts | 186° |
| 2026-04-27 02:13 | 29.94371 | -81.11488 | 22267 ft | 407 kts | 186° |
| 2026-04-27 02:13 | 29.91490 | -81.11659 | 22266 ft | 408 kts | 186° |
| 2026-04-27 02:13 | 29.88638 | -81.11829 | 22262 ft | 408 kts | 186° |
| 2026-04-27 02:13 | 29.85746 | -81.12000 | 22263 ft | 409 kts | 186° |
| 2026-04-27 02:14 | 29.82874 | -81.12170 | 22262 ft | 409 kts | 186° |
| 2026-04-27 02:14 | 29.79988 | -81.12328 | 22261 ft | 409 kts | 185° |
| 2026-04-27 02:14 | 29.77149 | -81.12385 | 22263 ft | 410 kts | 184° |
| 2026-04-27 02:14 | 29.74269 | -81.12382 | 22263 ft | 411 kts | 183° |
| 2026-04-27 02:15 | 29.71391 | -81.12356 | 22264 ft | 411 kts | 182° |
| 2026-04-27 02:15 | 29.69075 | -81.12334 | 22260 ft | 412 kts | 182° |
| 2026-04-27 02:15 | 29.66087 | -81.12318 | 22258 ft | 412 kts | 183° |
| 2026-04-27 02:15 | 29.63222 | -81.12318 | 22256 ft | 412 kts | 183° |
| 2026-04-27 02:16 | 29.60279 | -81.12329 | 22257 ft | 412 kts | 183° |
| 2026-04-27 02:16 | 29.57369 | -81.12346 | 22264 ft | 406 kts | 184° |
| 2026-04-27 02:16 | 29.54537 | -81.12322 | 22251 ft | 394 kts | 182° |
| 2026-04-27 02:16 | 29.51780 | -81.12220 | 22249 ft | 384 kts | 181° |
| 2026-04-27 02:17 | 29.49074 | -81.12085 | 22252 ft | 376 kts | 180° |
| 2026-04-27 02:17 | 29.46440 | -81.11944 | 22253 ft | 369 kts | 180° |
| 2026-04-27 02:17 | 29.43882 | -81.11813 | 22251 ft | 364 kts | 181° |
| 2026-04-27 02:17 | 29.41332 | -81.11694 | 22252 ft | 359 kts | 181° |
| 2026-04-27 02:18 | 29.38804 | -81.11586 | 22256 ft | 355 kts | 181° |
| 2026-04-27 02:18 | 29.36350 | -81.11488 | 22254 ft | 352 kts | 181° |
| 2026-04-27 02:18 | 29.33857 | -81.11392 | 22255 ft | 349 kts | 181° |
| 2026-04-27 02:18 | 29.31441 | -81.11286 | 22253 ft | 348 kts | 180° |
| 2026-04-27 02:19 | 29.28988 | -81.11012 | 22254 ft | 348 kts | 174° |
| 2026-04-27 02:19 | 29.26610 | -81.10420 | 22255 ft | 348 kts | 167° |
| 2026-04-27 02:19 | 29.24303 | -81.09506 | 22256 ft | 349 kts | 161° |
| 2026-04-27 02:19 | 29.22040 | -81.08437 | 22259 ft | 348 kts | 159° |
| 2026-04-27 02:20 | 29.19775 | -81.07343 | 22257 ft | 347 kts | 160° |
| 2026-04-27 02:20 | 29.17505 | -81.06300 | 22259 ft | 346 kts | 161° |
| 2026-04-27 02:20 | 29.15262 | -81.05344 | 22258 ft | 345 kts | 162° |
| 2026-04-27 02:20 | 29.12950 | -81.04420 | 22264 ft | 345 kts | 163° |
| 2026-04-27 02:21 | 29.10640 | -81.03535 | 22267 ft | 344 kts | 164° |
| 2026-04-27 02:21 | 29.08357 | -81.02675 | 22265 ft | 344 kts | 164° |
| 2026-04-27 02:21 | 29.06037 | -81.01800 | 22266 ft | 344 kts | 164° |
| 2026-04-27 02:21 | 29.03734 | -81.00924 | 22267 ft | 344 kts | 164° |
| 2026-04-27 02:22 | 29.01647 | -81.00122 | 22268 ft | 344 kts | 164° |
| 2026-04-27 02:22 | 28.99468 | -80.99280 | 22268 ft | 344 kts | 163° |
| 2026-04-27 02:22 | 28.97871 | -80.98659 | 22268 ft | 344 kts | 163° |
| 2026-04-27 02:22 | 28.95555 | -80.97761 | 22263 ft | 343 kts | 163° |
| 2026-04-27 02:23 | 28.93283 | -80.96879 | 22263 ft | 344 kts | 163° |
| 2026-04-27 02:23 | 28.90987 | -80.95988 | 22261 ft | 344 kts | 163° |
| 2026-04-27 02:23 | 28.88588 | -80.95063 | 21864 ft | 369 kts | 163° |
| 2026-04-27 02:23 | 28.86058 | -80.94090 | 21422 ft | 391 kts | 163° |
| 2026-04-27 02:24 | 28.83391 | -80.93064 | 20960 ft | 404 kts | 163° |
| 2026-04-27 02:24 | 28.80865 | -80.92090 | 20534 ft | 413 kts | 163° |
| 2026-04-27 02:24 | 28.78069 | -80.91009 | 20066 ft | 416 kts | 163° |
| 2026-04-27 02:24 | 28.75784 | -80.90126 | 19656 ft | 411 kts | 163° |
| 2026-04-27 02:25 | 28.73056 | -80.89070 | 19178 ft | 397 kts | 163° |
| 2026-04-27 02:25 | 28.70460 | -80.88065 | 18686 ft | 379 kts | 163° |
| 2026-04-27 02:25 | 28.67946 | -80.87094 | 18198 ft | 364 kts | 163° |
| 2026-04-27 02:25 | 28.65512 | -80.86156 | 17698 ft | 352 kts | 163° |
| 2026-04-27 02:26 | 28.63271 | -80.85296 | 17233 ft | 344 kts | 163° |
| 2026-04-27 02:26 | 28.60966 | -80.84412 | 16749 ft | 336 kts | 163° |
| 2026-04-27 02:26 | 28.58701 | -80.83544 | 16271 ft | 335 kts | 162° |
| 2026-04-27 02:26 | 28.56407 | -80.82665 | 15888 ft | 333 kts | 162° |
| 2026-04-27 02:27 | 28.54162 | -80.81804 | 15530 ft | 331 kts | 162° |
| 2026-04-27 02:27 | 28.52051 | -80.80995 | 15193 ft | 330 kts | 162° |
| 2026-04-27 02:27 | 28.51352 | -80.80727 | 15083 ft | 330 kts | 162° |
| 2026-04-27 02:27 | 28.49450 | -80.79997 | 14785 ft | 329 kts | 162° |
| 2026-04-27 02:28 | 28.47232 | -80.79147 | 14440 ft | 328 kts | 162° |
| 2026-04-27 02:28 | 28.45227 | -80.78378 | 14123 ft | 327 kts | 162° |
| 2026-04-27 02:28 | 28.43386 | -80.77673 | 13834 ft | 327 kts | 162° |
| 2026-04-27 02:28 | 28.41190 | -80.76833 | 13543 ft | 324 kts | 162° |
| 2026-04-27 02:29 | 28.38997 | -80.75995 | 13267 ft | 321 kts | 162° |
| 2026-04-27 02:29 | 28.36831 | -80.75166 | 13005 ft | 319 kts | 162° |
| 2026-04-27 02:29 | 28.34701 | -80.74352 | 12752 ft | 317 kts | 162° |
| 2026-04-27 02:29 | 28.32583 | -80.73543 | 12494 ft | 316 kts | 162° |
| 2026-04-27 02:30 | 28.30453 | -80.72729 | 12226 ft | 315 kts | 162° |
| 2026-04-27 02:30 | 28.28360 | -80.71929 | 11961 ft | 314 kts | 162° |
| 2026-04-27 02:30 | 28.26290 | -80.71138 | 11698 ft | 312 kts | 162° |
| 2026-04-27 02:30 | 28.24184 | -80.70335 | 11431 ft | 312 kts | 162° |
| 2026-04-27 02:31 | 28.22073 | -80.69530 | 11164 ft | 311 kts | 162° |
| 2026-04-27 02:31 | 28.20021 | -80.68747 | 10897 ft | 310 kts | 162° |
| 2026-04-27 02:31 | 28.17919 | -80.67947 | 10628 ft | 309 kts | 162° |
| 2026-04-27 02:31 | 28.15814 | -80.67145 | 10360 ft | 309 kts | 161° |
| 2026-04-27 02:32 | 28.13667 | -80.66328 | 10111 ft | 329 kts | 161° |
| 2026-04-27 02:32 | 28.11428 | -80.65479 | 9999 ft | 335 kts | 162° |
| 2026-04-27 02:32 | 28.09170 | -80.64625 | 9973 ft | 337 kts | 161° |
| 2026-04-27 02:32 | 28.06887 | -80.63757 | 9969 ft | 335 kts | 161° |
| 2026-04-27 02:33 | 28.04626 | -80.62897 | 9965 ft | 331 kts | 161° |
| 2026-04-27 02:33 | 28.02390 | -80.62047 | 9966 ft | 327 kts | 161° |
| 2026-04-27 02:33 | 28.00196 | -80.61214 | 9965 ft | 325 kts | 161° |
| 2026-04-27 02:33 | 27.98012 | -80.60384 | 9966 ft | 323 kts | 161° |
| 2026-04-27 02:34 | 27.95859 | -80.59566 | 9965 ft | 322 kts | 161° |
| 2026-04-27 02:34 | 27.93670 | -80.58733 | 9970 ft | 324 kts | 161° |
| 2026-04-27 02:34 | 27.91498 | -80.57908 | 9971 ft | 325 kts | 161° |
| 2026-04-27 02:34 | 27.89307 | -80.57076 | 9970 ft | 326 kts | 162° |
| 2026-04-27 02:35 | 27.87055 | -80.56222 | 9968 ft | 327 kts | 162° |
| 2026-04-27 02:35 | 27.84830 | -80.55379 | 9964 ft | 328 kts | 162° |
| 2026-04-27 02:35 | 27.82604 | -80.54538 | 9971 ft | 328 kts | 162° |
| 2026-04-27 02:35 | 27.80530 | -80.53754 | 9970 ft | 328 kts | 162° |
| 2026-04-27 02:36 | 27.78298 | -80.52910 | 9962 ft | 329 kts | 162° |
| 2026-04-27 02:36 | 27.76112 | -80.52084 | 9967 ft | 329 kts | 162° |
| 2026-04-27 02:36 | 27.73865 | -80.51234 | 9971 ft | 329 kts | 162° |
| 2026-04-27 02:36 | 27.71627 | -80.50391 | 9972 ft | 330 kts | 162° |
| 2026-04-27 02:37 | 27.70184 | -80.49845 | 9974 ft | 330 kts | 162° |
| 2026-04-27 02:37 | 27.69746 | -80.49680 | 9975 ft | 330 kts | 162° |
| 2026-04-27 02:37 | 27.68745 | -80.49302 | 9974 ft | 330 kts | 162° |
| 2026-04-27 02:37 | 27.64038 | -80.47633 | 9973 ft | 330 kts | 165° |
| 2026-04-27 02:38 | 27.61694 | -80.46892 | 9971 ft | 330 kts | 165° |
| 2026-04-27 02:38 | 27.59527 | -80.46222 | 9973 ft | 330 kts | 165° |
| 2026-04-27 02:38 | 27.57386 | -80.45560 | 9973 ft | 330 kts | 165° |
| 2026-04-27 02:39 | 27.55131 | -80.44852 | 9973 ft | 330 kts | 165° |
| 2026-04-27 02:39 | 27.53083 | -80.44201 | 9970 ft | 330 kts | 165° |
| 2026-04-27 02:39 | 27.51594 | -80.43722 | 9979 ft | 330 kts | 165° |
| 2026-04-27 02:39 | 27.49314 | -80.42983 | 9968 ft | 322 kts | 165° |
| 2026-04-27 02:40 | 27.47078 | -80.42258 | 9966 ft | 313 kts | 165° |
| 2026-04-27 02:40 | 27.44952 | -80.41567 | 9970 ft | 307 kts | 165° |
| 2026-04-27 02:40 | 27.42855 | -80.40888 | 9969 ft | 301 kts | 165° |
| 2026-04-27 02:40 | 27.40785 | -80.40221 | 9971 ft | 304 kts | 165° |
| 2026-04-27 02:41 | 27.38660 | -80.39541 | 9982 ft | 313 kts | 165° |
| 2026-04-27 02:41 | 27.36480 | -80.38844 | 9814 ft | 316 kts | 165° |
| 2026-04-27 02:41 | 27.34404 | -80.38176 | 9491 ft | 316 kts | 165° |
| 2026-04-27 02:41 | 27.32214 | -80.37472 | 9146 ft | 315 kts | 165° |
| 2026-04-27 02:42 | 27.30038 | -80.36774 | 8800 ft | 314 kts | 165° |
| 2026-04-27 02:42 | 27.27883 | -80.36082 | 8457 ft | 314 kts | 165° |
| 2026-04-27 02:42 | 27.25711 | -80.35384 | 8103 ft | 313 kts | 165° |
| 2026-04-27 02:42 | 27.23572 | -80.34696 | 7986 ft | 305 kts | 165° |
| 2026-04-27 02:43 | 27.21493 | -80.34029 | 7975 ft | 296 kts | 165° |
| 2026-04-27 02:43 | 27.19502 | -80.33389 | 7966 ft | 289 kts | 165° |
| 2026-04-27 02:43 | 27.17514 | -80.32752 | 7965 ft | 282 kts | 165° |
| 2026-04-27 02:43 | 27.15577 | -80.32130 | 7966 ft | 278 kts | 165° |
| 2026-04-27 02:44 | 27.13701 | -80.31462 | 7943 ft | 276 kts | 156° |
| 2026-04-27 02:44 | 27.12127 | -80.30119 | 7711 ft | 291 kts | 137° |
| 2026-04-27 02:44 | 27.10579 | -80.28429 | 7261 ft | 312 kts | 134° |
| 2026-04-27 02:44 | 27.09002 | -80.26583 | 6785 ft | 328 kts | 133° |
| 2026-04-27 02:45 | 27.07379 | -80.24644 | 6303 ft | 340 kts | 133° |
| 2026-04-27 02:45 | 27.05713 | -80.22635 | 5816 ft | 347 kts | 133° |
| 2026-04-27 02:45 | 27.04141 | -80.20729 | 5284 ft | 295 kts | 133° |
| 2026-04-27 02:45 | 27.02756 | -80.19042 | 4757 ft | 277 kts | 133° |
| 2026-04-27 02:46 | 27.01435 | -80.17427 | 4245 ft | 268 kts | 133° |
| 2026-04-27 02:46 | 27.00597 | -80.16399 | 3912 ft | 264 kts | 133° |
| 2026-04-27 02:46 | 26.99329 | -80.14867 | 3413 ft | 258 kts | 135° |
| 2026-04-27 02:46 | 26.98026 | -80.13445 | 2917 ft | 252 kts | 136° |
| 2026-04-27 02:47 | 26.96743 | -80.12085 | 2423 ft | 247 kts | 137° |
| 2026-04-27 02:47 | 26.95268 | -80.11071 | 2018 ft | 235 kts | 167° |
| 2026-04-27 02:47 | 26.93705 | -80.10877 | 1967 ft | 212 kts | 175° |
| 2026-04-27 02:47 | 26.92264 | -80.10791 | 1954 ft | 193 kts | 178° |
| 2026-04-27 02:48 | 26.90946 | -80.10767 | 1949 ft | 175 kts | 183° |
| 2026-04-27 02:48 | 26.89809 | -80.10957 | 1999 ft | 152 kts | 194° |
| 2026-04-27 02:48 | 26.88784 | -80.11357 | 1956 ft | 144 kts | 202° |
| 2026-04-27 02:48 | 26.87849 | -80.11792 | 1962 ft | 141 kts | 202° |
| 2026-04-27 02:49 | 26.86871 | -80.12223 | 1886 ft | 151 kts | 200° |
| 2026-04-27 02:49 | 26.85903 | -80.12616 | 1792 ft | 161 kts | 198° |
| 2026-04-27 02:49 | 26.84807 | -80.13039 | 1688 ft | 163 kts | 198° |
| 2026-04-27 02:49 | 26.84215 | -80.13403 | 1639 ft | 153 kts | 224° |
| 2026-04-27 02:50 | 26.84198 | -80.14410 | 1547 ft | 129 kts | 293° |
| 2026-04-27 02:50 | 26.84401 | -80.14931 | 1397 ft | 126 kts | 288° |
| 2026-04-27 02:50 | 26.84584 | -80.15949 | 1206 ft | 114 kts | 268° |
| 2026-04-27 02:50 | 26.84613 | -80.16605 | 1084 ft | 110 kts | 270° |
| 2026-04-27 02:51 | 26.84640 | -80.17464 | 1002 ft | 105 kts | 264° |
| 2026-04-27 02:51 | 26.84583 | -80.18298 | 917 ft | 106 kts | 259° |
| 2026-04-27 02:51 | 26.84493 | -80.19147 | 713 ft | 115 kts | 262° |
| 2026-04-27 02:51 | 26.84432 | -80.20077 | 397 ft | 119 kts | 263° |
| 2026-04-27 02:52 | 26.84372 | -80.21006 | 124 ft | 112 kts | 262° |
| 2026-04-27 02:52 | 26.84316 | -80.21825 | 25 ft | 92 kts | 265° |
| 2026-04-27 02:52 | 26.84283 | -80.22267 | 24 ft | 18 kts | 265° |
| 2026-04-27 02:52 | 26.84347 | -80.22324 | 24 ft | 12 kts | 19° |
| 2026-04-27 02:53 | 26.84367 | -80.22244 | 24 ft | 10 kts | 84° |
| 2026-04-27 02:53 | 26.84376 | -80.22124 | 24 ft | 18 kts | 86° |
| 2026-04-27 02:53 | 26.84387 | -80.21982 | 24 ft | 10 kts | 83° |
| 2026-04-27 02:53 | 26.84406 | -80.21963 | 24 ft | 7 kts | 357° |
| 2026-04-27 02:54 | 26.84488 | -80.21976 | 24 ft | 15 kts | 5° |
| 2026-04-27 02:54 | 26.84541 | -80.21967 | 25 ft | 0 kts | 48° |